Time;durP1;ratioP1;P1;durP2;ratioP2;P2;SDS_P1;SDS_P2;PMS_P1;PMS_P2;Temp;Humidity;BMP_temperature;BMP_pressure;BME280_temperature;BME280_humidity;BME280_pressure;Samples;Min_cycle;Max_cycle;Signal;HPM_P1;HPM_P2
2021/07/13 00:02:20;;;;;;;11.30;10.20;;;22.10;74.30;;;;;;5096704;28;20181;-75
2021/07/13 00:04:45;;;;;;;10.95;9.95;;;22.00;74.20;;;;;;5097140;28;20059;-75
2021/07/13 00:07:11;;;;;;;10.70;9.60;;;22.00;74.30;;;;;;5096784;28;20484;-75
2021/07/13 00:09:37;;;;;;;11.30;10.20;;;22.00;74.30;;;;;;5096679;28;20047;-74
2021/07/13 00:12:04;;;;;;;10.93;9.85;;;22.00;74.20;;;;;;5097397;28;20357;-74
2021/07/13 00:14:31;;;;;;;10.27;9.23;;;22.00;74.20;;;;;;5096397;28;20039;-74
2021/07/13 00:16:57;;;;;;;10.93;9.82;;;22.00;74.20;;;;;;5096748;28;20036;-74
2021/07/13 00:19:22;;;;;;;11.25;10.15;;;22.00;74.20;;;;;;5096906;28;20444;-75
2021/07/13 00:21:48;;;;;;;10.95;9.85;;;22.00;74.30;;;;;;5096436;28;20055;-76
2021/07/13 00:24:15;;;;;;;11.20;10.02;;;22.00;74.20;;;;;;5096908;28;20055;-75
2021/07/13 00:26:41;;;;;;;10.52;9.52;;;22.00;74.20;;;;;;5096542;28;20098;-75
2021/07/13 00:29:07;;;;;;;10.10;9.18;;;22.00;74.20;;;;;;5096488;28;20090;-75
2021/07/13 00:31:34;;;;;;;10.15;9.23;;;22.00;74.20;;;;;;5096731;28;20048;-75
2021/07/13 00:34:00;;;;;;;12.05;10.95;;;22.00;74.20;;;;;;5096392;28;20143;-74
2021/07/13 00:36:26;;;;;;;10.60;9.60;;;22.00;74.20;;;;;;5096473;28;20131;-75
2021/07/13 00:38:52;;;;;;;10.88;9.88;;;22.00;74.20;;;;;;5096387;28;20054;-74
2021/07/13 00:41:18;;;;;;;10.60;9.65;;;22.00;74.20;;;;;;5095912;28;20044;-75
2021/07/13 00:43:44;;;;;;;10.90;9.77;;;22.00;74.20;;;;;;5095926;28;20044;-74
2021/07/13 00:46:11;;;;;;;10.82;9.70;;;22.00;74.20;;;;;;5096744;28;20080;-75
2021/07/13 00:48:37;;;;;;;11.02;9.95;;;22.00;74.20;;;;;;5096219;28;20044;-74
2021/07/13 00:51:05;;;;;;;10.60;9.65;;;22.00;74.20;;;;;;5095607;28;20036;-74
2021/07/13 00:53:31;;;;;;;10.55;9.55;;;22.00;74.20;;;;;;5095851;28;20044;-74
2021/07/13 00:55:57;;;;;;;11.07;9.98;;;22.00;74.20;;;;;;5095994;28;20048;-74
2021/07/13 00:58:26;;;;;;;11.93;10.75;;;22.00;74.20;;;;;;5096219;28;20161;-74
2021/07/13 01:00:52;;;;;;;10.95;9.95;;;22.00;74.20;;;;;;5095878;28;20043;-74
2021/07/13 01:03:18;;;;;;;11.55;10.27;;;22.00;74.20;;;;;;5095653;28;20530;-74
2021/07/13 01:05:47;;;;;;;10.55;9.55;;;22.00;74.20;;;;;;5096065;28;20052;-75
2021/07/13 01:08:46;;;;;;;11.07;9.98;;;22.00;74.20;;;;;;5095811;28;20124;-74
2021/07/13 01:11:26;;;;;;;11.40;10.25;;;22.00;74.20;;;;;;5095978;28;20044;-75
2021/07/13 01:14:17;;;;;;;11.40;10.30;;;22.00;74.20;;;;;;5095503;28;20374;-74
2021/07/13 01:16:49;;;;;;;10.70;9.60;;;22.00;74.30;;;;;;5096155;28;20113;-75
2021/07/13 01:19:34;;;;;;;11.55;10.45;;;22.00;74.30;;;;;;5095558;28;20043;-75
2021/07/13 01:22:09;;;;;;;12.02;10.82;;;22.00;74.30;;;;;;5095881;28;20048;-75
2021/07/13 01:24:59;;;;;;;12.50;10.63;;;22.00;74.30;;;;;;5095041;28;20364;-75
2021/07/13 01:27:48;;;;;;;11.10;10.00;;;22.00;74.20;;;;;;5095416;28;20063;-75
2021/07/13 01:30:24;;;;;;;11.27;10.18;;;22.00;74.30;;;;;;5095446;28;20052;-75
2021/07/13 01:32:57;;;;;;;11.73;10.52;;;21.90;74.20;;;;;;5095779;28;20118;-74
2021/07/13 01:35:30;;;;;;;10.32;9.38;;;21.90;74.20;;;;;;5095134;28;20054;-75
2021/07/13 01:37:57;;;;;;;;;;;21.90;74.30;;;;;;5095800;28;20050;-75
2021/07/13 01:40:25;;;;;;;11.25;10.15;;;21.90;74.20;;;;;;5095076;28;20010;-75
2021/07/13 01:42:52;;;;;;;12.05;10.60;;;21.90;74.30;;;;;;5095689;28;20071;-75
2021/07/13 01:45:19;;;;;;;10.55;9.55;;;21.90;74.30;;;;;;5095361;28;20135;-75
2021/07/13 01:47:45;;;;;;;11.45;10.35;;;21.90;74.20;;;;;;5095446;28;20116;-74
2021/07/13 01:50:13;;;;;;;10.85;9.88;;;21.90;74.20;;;;;;5095418;28;20044;-74
2021/07/13 01:52:40;;;;;;;11.10;10.05;;;21.90;74.20;;;;;;5095264;28;20128;-75
2021/07/13 01:55:07;;;;;;;11.13;10.07;;;21.90;74.20;;;;;;5097730;28;20044;-75
2021/07/13 01:57:34;;;;;;;10.55;9.48;;;21.90;74.20;;;;;;5099149;28;20063;-75
2021/07/13 02:00:05;;;;;;;11.70;10.43;;;21.90;74.20;;;;;;5099285;28;20062;-75
2021/07/13 02:02:31;;;;;;;11.02;9.95;;;21.90;74.20;;;;;;5099537;28;20062;-75
2021/07/13 02:05:00;;;;;;;10.80;9.80;;;21.90;74.30;;;;;;5099163;28;20149;-75
2021/07/13 02:07:26;;;;;;;10.65;9.63;;;21.90;74.20;;;;;;5099308;28;20043;-74
2021/07/13 02:09:53;;;;;;;11.57;10.38;;;21.90;74.20;;;;;;5099224;28;20537;-75
2021/07/13 02:12:19;;;;;;;10.63;9.63;;;21.90;74.20;;;;;;5099195;28;20048;-75
2021/07/13 02:14:44;;;;;;;10.90;9.80;;;21.90;74.20;;;;;;5099214;28;20123;-74
2021/07/13 02:17:10;;;;;;;11.07;9.93;;;21.90;74.20;;;;;;5098869;28;20063;-75
2021/07/13 02:19:36;;;;;;;10.88;9.77;;;21.90;74.20;;;;;;5099247;28;20075;-75
2021/07/13 02:22:03;;;;;;;11.00;9.88;;;21.90;74.20;;;;;;5098942;28;20039;-75
2021/07/13 02:24:38;;;;;;;11.48;10.27;;;21.90;74.20;;;;;;5098855;28;20351;-74
2021/07/13 02:27:15;;;;;;;11.15;10.00;;;21.90;74.20;;;;;;5081144;28;20058;-75
2021/07/13 02:29:55;;;;;;;11.73;10.52;;;21.90;74.20;;;;;;5099212;28;20079;-74
2021/07/13 02:32:35;;;;;;;11.35;10.25;;;21.90;74.20;;;;;;5099381;28;20070;-74
2021/07/13 02:35:05;;;;;;;11.40;10.10;;;21.90;74.20;;;;;;5099346;28;20052;-75
2021/07/13 02:37:34;;;;;;;11.57;10.20;;;21.90;74.20;;;;;;5098895;28;20044;-75
2021/07/13 02:40:03;;;;;;;11.50;10.40;;;21.90;74.20;;;;;;5098243;28;20320;-75
2021/07/13 02:42:29;;;;;;;11.45;10.15;;;21.90;74.20;;;;;;5098325;28;20043;-74
2021/07/13 02:44:56;;;;;;;10.40;9.40;;;21.90;74.20;;;;;;5098598;28;20051;-74
2021/07/13 02:47:23;;;;;;;12.73;10.63;;;21.90;74.20;;;;;;5098850;28;20052;-74
2021/07/13 02:49:51;;;;;;;10.90;9.82;;;21.90;74.20;;;;;;5099036;28;20354;-74
2021/07/13 02:52:31;;;;;;;11.55;10.40;;;21.90;74.20;;;;;;5098668;28;20059;-75
2021/07/13 02:55:19;;;;;;;12.20;11.00;;;21.90;74.20;;;;;;5098564;28;20491;-75
2021/07/13 02:57:46;;;;;;;10.93;9.88;;;21.90;74.10;;;;;;5098428;28;20119;-75
2021/07/13 03:00:14;;;;;;;10.82;9.77;;;21.90;74.20;;;;;;5098310;28;20130;-75
2021/07/13 03:02:42;;;;;;;10.70;9.70;;;21.90;74.10;;;;;;5097680;28;20109;-74
2021/07/13 03:05:13;;;;;;;12.38;10.32;;;21.90;74.20;;;;;;5097578;28;20087;-75
2021/07/13 03:07:40;;;;;;;11.73;10.52;;;21.90;74.10;;;;;;5098100;28;20044;-75
2021/07/13 03:10:07;;;;;;;11.68;10.57;;;21.90;74.10;;;;;;5097951;28;20071;-74
2021/07/13 03:12:34;;;;;;;11.65;10.45;;;21.90;74.10;;;;;;5098216;28;20044;-75
2021/07/13 03:15:02;;;;;;;11.75;10.55;;;21.90;74.20;;;;;;5097377;28;20071;-74
2021/07/13 03:17:28;;;;;;;10.50;9.40;;;21.90;74.20;;;;;;5097576;28;20044;-74
2021/07/13 03:19:54;;;;;;;10.95;9.52;;;21.90;74.10;;;;;;5098206;28;20452;-74
2021/07/13 03:22:28;;;;;;;11.23;10.05;;;21.90;74.10;;;;;;5097503;28;20071;-74
2021/07/13 03:24:58;;;;;;;11.32;10.23;;;21.80;74.10;;;;;;5097894;28;20043;-74
2021/07/13 03:27:26;;;;;;;12.18;10.88;;;21.90;74.10;;;;;;5098285;28;20454;-74
2021/07/13 03:29:55;;;;;;;11.05;9.95;;;21.80;74.10;;;;;;5097897;28;20039;-74
2021/07/13 03:32:22;;;;;;;11.20;10.00;;;21.90;74.10;;;;;;5097746;28;20378;-75
2021/07/13 03:34:48;;;;;;;12.25;10.60;;;21.90;74.10;;;;;;5097609;28;20070;-74
2021/07/13 03:37:15;;;;;;;11.88;10.68;;;21.80;74.10;;;;;;5097774;28;20118;-74
2021/07/13 03:39:42;;;;;;;11.82;10.63;;;21.80;74.10;;;;;;5097623;28;20098;-75
2021/07/13 03:42:08;;;;;;;12.00;10.38;;;21.80;74.10;;;;;;5098192;28;20043;-75
2021/07/13 03:44:34;;;;;;;11.43;10.18;;;21.90;74.10;;;;;;5097321;28;20055;-75
2021/07/13 03:47:00;;;;;;;11.85;10.57;;;21.80;74.60;;;;;;5097103;28;20044;-75
2021/07/13 03:49:27;;;;;;;11.85;10.65;;;21.80;74.00;;;;;;5097878;28;20044;-75
2021/07/13 03:51:53;;;;;;;11.18;10.05;;;21.90;74.10;;;;;;5097469;28;20036;-75
2021/07/13 03:54:20;;;;;;;11.57;10.18;;;21.80;74.00;;;;;;5097077;28;20056;-75
2021/07/13 03:56:48;;;;;;;11.50;10.07;;;21.80;74.00;;;;;;5097330;28;20051;-75
2021/07/13 03:59:14;;;;;;;12.32;9.88;;;21.80;74.10;;;;;;5097466;28;20376;-74
2021/07/13 04:01:39;;;;;;;10.88;9.77;;;21.80;74.00;;;;;;5097057;28;20059;-74
2021/07/13 04:04:06;;;;;;;11.38;10.20;;;21.80;74.00;;;;;;5096889;28;20478;-74
2021/07/13 04:06:32;;;;;;;11.10;10.00;;;21.80;74.10;;;;;;5097683;28;20176;-74
2021/07/13 04:08:59;;;;;;;12.30;10.45;;;21.80;74.00;;;;;;5096938;28;20036;-74
2021/07/13 04:11:25;;;;;;;11.43;10.32;;;21.80;74.10;;;;;;5096626;28;20360;-74
2021/07/13 04:13:52;;;;;;;10.65;9.65;;;21.80;74.10;;;;;;5096940;28;20046;-75
2021/07/13 04:16:18;;;;;;;11.85;10.23;;;21.80;74.00;;;;;;5096427;28;20040;-74
2021/07/13 04:18:44;;;;;;;11.13;10.02;;;21.80;74.10;;;;;;5096935;28;20101;-74
2021/07/13 04:21:10;;;;;;;11.93;9.98;;;21.80;74.00;;;;;;5097181;28;20056;-74
2021/07/13 04:23:36;;;;;;;11.43;10.32;;;21.80;74.00;;;;;;5096761;28;20507;-74
2021/07/13 04:26:04;;;;;;;11.73;10.20;;;21.80;74.00;;;;;;5096414;28;20051;-74
2021/07/13 04:28:31;;;;;;;11.25;10.15;;;21.80;74.00;;;;;;5096253;28;20083;-74
2021/07/13 04:30:58;;;;;;;11.25;10.07;;;21.80;74.00;;;;;;5096742;28;20078;-74
2021/07/13 04:33:25;;;;;;;11.32;10.07;;;21.80;74.00;;;;;;5096274;28;20497;-74
2021/07/13 04:35:52;;;;;;;11.60;10.40;;;21.80;74.00;;;;;;5096254;28;20048;-75
2021/07/13 04:38:18;;;;;;;13.00;11.07;;;21.80;74.00;;;;;;5096344;28;20356;-75
2021/07/13 04:40:45;;;;;;;11.70;10.18;;;21.80;74.00;;;;;;5095812;28;20352;-74
2021/07/13 04:43:11;;;;;;;11.32;10.23;;;21.80;74.00;;;;;;5096290;28;20040;-74
2021/07/13 04:45:37;;;;;;;10.88;9.77;;;21.80;74.00;;;;;;5096336;28;20054;-75
2021/07/13 04:48:03;;;;;;;11.38;10.18;;;21.80;74.00;;;;;;5096272;28;20363;-74
2021/07/13 04:50:29;;;;;;;11.30;10.05;;;21.80;74.00;;;;;;5096229;28;20044;-75
2021/07/13 04:52:55;;;;;;;10.65;9.60;;;21.80;74.00;;;;;;5095797;28;20123;-74
2021/07/13 04:55:21;;;;;;;11.38;10.18;;;21.80;74.00;;;;;;5096333;28;20085;-75
2021/07/13 04:57:47;;;;;;;11.18;10.05;;;21.80;74.00;;;;;;5095677;28;20445;-74
2021/07/13 05:00:14;;;;;;;11.45;10.35;;;21.80;74.00;;;;;;5095958;28;20040;-74
2021/07/13 05:02:40;;;;;;;11.07;9.88;;;21.80;74.00;;;;;;5096495;28;20040;-74
2021/07/13 05:05:10;;;;;;;11.27;10.18;;;21.80;74.00;;;;;;5095730;28;20123;-74
2021/07/13 05:07:43;;;;;;;11.90;10.20;;;21.80;74.00;;;;;;5095937;28;20055;-74
2021/07/13 05:10:10;;;;;;;;;;;21.80;74.00;;;;;;5096060;28;20073;-75
2021/07/13 05:12:37;;;;;;;11.45;10.23;;;21.80;74.00;;;;;;5095546;28;19923;-75
2021/07/13 05:15:05;;;;;;;12.23;10.88;;;21.80;74.10;;;;;;5096337;28;20073;-74
2021/07/13 05:17:30;;;;;;;11.75;10.63;;;21.80;74.10;;;;;;5096039;28;20048;-74
2021/07/13 05:19:56;;;;;;;12.38;10.57;;;21.80;74.10;;;;;;5095562;28;20044;-74
2021/07/13 05:22:22;;;;;;;11.85;10.68;;;21.80;74.10;;;;;;5094875;28;20076;-74
2021/07/13 05:24:48;;;;;;;11.90;10.70;;;21.80;74.10;;;;;;5095314;28;20486;-74
2021/07/13 05:27:15;;;;;;;10.75;9.65;;;21.80;74.10;;;;;;5095449;28;20059;-75
2021/07/13 05:29:42;;;;;;;11.38;10.23;;;21.80;74.10;;;;;;5095412;28;20068;-74
2021/07/13 05:32:08;;;;;;;13.55;11.52;;;21.80;74.10;;;;;;5095640;28;20044;-75
2021/07/13 05:34:35;;;;;;;12.18;10.95;;;21.80;74.10;;;;;;5095522;28;20075;-75
2021/07/13 05:37:02;;;;;;;12.00;10.80;;;21.80;74.10;;;;;;5095758;28;20103;-75
2021/07/13 05:39:28;;;;;;;12.27;10.98;;;21.80;74.10;;;;;;5095128;28;20044;-75
2021/07/13 05:41:55;;;;;;;13.07;11.77;;;21.80;74.10;;;;;;5095177;28;20109;-75
2021/07/13 05:44:21;;;;;;;11.43;10.23;;;21.80;74.10;;;;;;5095605;28;20060;-74
2021/07/13 05:46:47;;;;;;;12.20;10.77;;;21.80;74.00;;;;;;5095564;28;20054;-74
2021/07/13 05:49:13;;;;;;;12.93;11.13;;;21.70;74.00;;;;;;5095491;28;20071;-74
2021/07/13 05:51:38;;;;;;;12.25;10.85;;;21.80;74.00;;;;;;5095162;28;20052;-74
2021/07/13 05:54:04;;;;;;;11.50;10.35;;;21.80;74.00;;;;;;5095353;28;20052;-74
2021/07/13 05:56:30;;;;;;;12.73;11.43;;;21.80;74.10;;;;;;5095197;28;20408;-74
2021/07/13 05:58:56;;;;;;;12.07;10.88;;;21.80;74.00;;;;;;5095299;28;20143;-74
2021/07/13 06:01:22;;;;;;;11.93;10.60;;;21.80;74.00;;;;;;5095359;28;20125;-74
2021/07/13 06:03:48;;;;;;;12.50;11.20;;;21.80;74.00;;;;;;5095205;28;20044;-74
2021/07/13 06:06:14;;;;;;;11.30;10.18;;;21.80;74.10;;;;;;5095071;28;20047;-74
2021/07/13 06:08:40;;;;;;;12.70;11.35;;;21.80;74.10;;;;;;5094881;28;20082;-74
2021/07/13 06:11:06;;;;;;;13.00;11.40;;;21.80;74.00;;;;;;5095367;28;20036;-74
2021/07/13 06:13:32;;;;;;;11.93;10.55;;;21.80;74.00;;;;;;5095206;28;20040;-75
2021/07/13 06:15:58;;;;;;;12.80;11.25;;;21.80;74.10;;;;;;5095049;28;20055;-74
2021/07/13 06:18:24;;;;;;;11.68;10.48;;;21.80;74.00;;;;;;5095026;28;20463;-75
2021/07/13 06:20:50;;;;;;;12.00;10.80;;;21.80;74.00;;;;;;5095262;28;20054;-74
2021/07/13 06:23:16;;;;;;;12.07;10.75;;;21.70;74.00;;;;;;5094766;28;20052;-74
2021/07/13 06:25:42;;;;;;;12.90;11.60;;;21.80;74.00;;;;;;5095120;28;20078;-74
2021/07/13 06:28:08;;;;;;;12.27;11.05;;;21.80;74.00;;;;;;5095249;28;20040;-74
2021/07/13 06:30:34;;;;;;;12.07;10.88;;;21.80;74.00;;;;;;5095295;28;20462;-74
2021/07/13 06:33:00;;;;;;;11.90;10.70;;;21.80;74.00;;;;;;5094948;28;20452;-74
2021/07/13 06:35:27;;;;;;;12.00;10.70;;;21.80;74.00;;;;;;5094421;28;20071;-74
2021/07/13 06:37:53;;;;;;;11.95;10.75;;;21.80;74.00;;;;;;5094981;28;20056;-74
2021/07/13 06:40:19;;;;;;;11.90;10.70;;;21.80;74.00;;;;;;5096451;28;20052;-74
2021/07/13 06:42:45;;;;;;;12.25;10.82;;;21.80;74.00;;;;;;5098278;28;20051;-74
2021/07/13 06:45:11;;;;;;;11.68;10.50;;;21.80;74.10;;;;;;5098484;28;20363;-74
2021/07/13 06:47:37;;;;;;;12.70;11.38;;;21.80;74.10;;;;;;5098625;28;20067;-74
2021/07/13 06:50:04;;;;;;;13.63;11.93;;;21.80;74.10;;;;;;5097916;28;20451;-74
2021/07/13 06:52:30;;;;;;;12.32;11.02;;;21.80;74.10;;;;;;5098328;28;20040;-74
2021/07/13 06:54:56;;;;;;;12.63;11.35;;;21.80;74.10;;;;;;5098679;28;20071;-75
2021/07/13 06:57:23;;;;;;;12.95;11.65;;;21.80;74.10;;;;;;5098621;28;20036;-74
2021/07/13 06:59:49;;;;;;;12.63;11.43;;;21.80;74.10;;;;;;5098563;28;20068;-74
2021/07/13 07:02:16;;;;;;;12.73;11.43;;;21.80;74.10;;;;;;5098565;28;20044;-75
2021/07/13 07:04:41;;;;;;;11.68;10.48;;;21.80;74.10;;;;;;5098137;28;20194;-75
2021/07/13 07:07:07;;;;;;;12.20;11.00;;;21.80;74.10;;;;;;5097892;28;20126;-75
2021/07/13 07:09:33;;;;;;;12.98;11.68;;;21.70;74.00;;;;;;5097916;28;20058;-75
2021/07/13 07:11:59;;;;;;;12.38;11.18;;;21.80;74.10;;;;;;5098119;28;20051;-75
2021/07/13 07:14:25;;;;;;;12.52;11.23;;;21.70;74.00;;;;;;5098238;28;20077;-74
2021/07/13 07:16:50;;;;;;;12.90;11.60;;;21.80;74.10;;;;;;5098054;28;20521;-74
2021/07/13 07:19:16;;;;;;;12.48;11.18;;;21.80;74.10;;;;;;5097787;28;20072;-74
2021/07/13 07:21:42;;;;;;;11.93;10.82;;;21.80;74.10;;;;;;5098302;28;20113;-74
2021/07/13 07:24:08;;;;;;;12.45;11.10;;;21.80;74.00;;;;;;5097365;28;20059;-75
2021/07/13 07:26:34;;;;;;;12.98;11.48;;;21.70;74.00;;;;;;5097850;28;20451;-74
2021/07/13 07:28:59;;;;;;;12.63;11.32;;;21.70;74.00;;;;;;5097753;28;20123;-74
2021/07/13 07:31:25;;;;;;;12.48;11.25;;;21.80;74.10;;;;;;5097485;28;20077;-74
2021/07/13 07:33:51;;;;;;;12.15;10.95;;;21.70;74.00;;;;;;5097427;28;20101;-74
2021/07/13 07:36:17;;;;;;;12.13;10.82;;;21.70;74.00;;;;;;5097583;28;20130;-74
2021/07/13 07:38:43;;;;;;;11.95;10.75;;;21.80;74.10;;;;;;5097550;28;20119;-74
2021/07/13 07:41:09;;;;;;;12.48;11.18;;;21.70;74.00;;;;;;5097826;28;20420;-74
2021/07/13 07:43:35;;;;;;;12.43;11.15;;;21.70;74.00;;;;;;5097284;28;20420;-74
2021/07/13 07:46:01;;;;;;;12.27;11.07;;;21.70;74.00;;;;;;5097652;28;20067;-75
2021/07/13 07:48:26;;;;;;;12.73;11.52;;;21.70;74.00;;;;;;5097544;28;20082;-74
2021/07/13 07:50:52;;;;;;;11.98;10.77;;;21.80;74.10;;;;;;5096983;28;20048;-75
2021/07/13 07:53:18;;;;;;;12.27;11.05;;;21.70;74.00;;;;;;5097308;28;20046;-75
2021/07/13 07:55:44;;;;;;;12.20;10.90;;;21.70;74.00;;;;;;5097322;28;20052;-74
2021/07/13 07:58:10;;;;;;;12.77;11.48;;;21.70;74.10;;;;;;5097350;28;20048;-74
2021/07/13 08:00:36;;;;;;;12.65;11.35;;;21.80;74.10;;;;;;5097755;28;20105;-75
2021/07/13 08:03:03;;;;;;;12.25;11.05;;;21.80;74.10;;;;;;5097617;28;20128;-75
2021/07/13 08:05:32;;;;;;;12.40;11.10;;;21.70;74.10;;;;;;5097365;28;20128;-74
2021/07/13 08:07:58;;;;;;;11.07;10.07;;;21.80;74.10;;;;;;5097370;28;20063;-75
2021/07/13 08:10:24;;;;;;;12.05;10.85;;;21.70;74.10;;;;;;5096921;28;20060;-75
2021/07/13 08:12:50;;;;;;;11.68;10.48;;;21.80;74.20;;;;;;5097102;28;20368;-75
2021/07/13 08:15:16;;;;;;;12.27;11.07;;;21.70;74.10;;;;;;5096933;28;20324;-75
2021/07/13 08:17:43;;;;;;;12.55;11.38;;;21.70;74.10;;;;;;5097278;28;20059;-74
2021/07/13 08:20:10;;;;;;;12.20;10.82;;;21.70;74.10;;;;;;5096437;28;20435;-74
2021/07/13 08:22:36;;;;;;;12.05;10.80;;;21.80;74.20;;;;;;5096747;28;20055;-74
2021/07/13 08:25:04;;;;;;;10.98;9.88;;;21.80;74.20;;;;;;5097372;28;20070;-74
2021/07/13 08:27:30;;;;;;;11.77;10.68;;;21.80;74.30;;;;;;5096647;28;20134;-74
2021/07/13 08:29:57;;;;;;;11.90;10.80;;;21.80;74.30;;;;;;5096400;28;20111;-74
2021/07/13 08:32:23;;;;;;;11.60;10.43;;;21.80;74.30;;;;;;5096354;28;20101;-74
2021/07/13 08:34:48;;;;;;;11.38;10.23;;;21.80;74.30;;;;;;5096663;28;20456;-74
2021/07/13 08:37:15;;;;;;;10.88;9.77;;;21.80;74.30;;;;;;5096254;28;20176;-74
2021/07/13 08:39:41;;;;;;;11.45;10.25;;;21.80;74.30;;;;;;5096363;28;20450;-74
2021/07/13 08:42:09;;;;;;;11.25;10.15;;;21.80;74.30;;;;;;5095665;28;20036;-74
2021/07/13 08:44:35;;;;;;;10.80;9.70;;;21.80;74.30;;;;;;5096088;28;20413;-74
2021/07/13 08:47:01;;;;;;;10.93;9.85;;;21.80;74.30;;;;;;5095753;28;20135;-75
2021/07/13 08:49:27;;;;;;;10.48;9.45;;;21.80;74.20;;;;;;5096397;28;20043;-75
2021/07/13 08:51:53;;;;;;;10.95;9.75;;;21.80;74.20;;;;;;5096160;28;20359;-75
2021/07/13 08:54:19;;;;;;;10.65;9.55;;;21.80;74.10;;;;;;5096151;28;20053;-75
2021/07/13 08:56:45;;;;;;;10.57;9.57;;;21.80;74.10;;;;;;5096162;28;20048;-74
2021/07/13 08:59:10;;;;;;;11.13;10.02;;;21.80;74.10;;;;;;5096067;28;20336;-75
2021/07/13 09:01:36;;;;;;;9.50;8.60;;;21.80;74.10;;;;;;5096102;28;20047;-75
2021/07/13 09:04:05;;;;;;;10.75;9.75;;;21.80;74.10;;;;;;5095196;28;20115;-74
2021/07/13 09:06:55;;;;;;;11.43;9.85;;;21.80;74.10;;;;;;5077761;28;20047;-74
2021/07/13 09:09:23;;;;;;;10.30;9.30;;;21.80;74.00;;;;;;5095650;28;20043;-75
2021/07/13 09:12:15;;;;;;;11.07;9.98;;;21.80;74.10;;;;;;5095469;28;20115;-75
2021/07/13 09:14:57;;;;;;;10.90;9.80;;;21.80;74.10;;;;;;5096323;28;20056;-75
2021/07/13 09:17:33;;;;;;;10.38;9.38;;;21.80;74.70;;;;;;5096158;28;20082;-74
2021/07/13 09:20:22;;;;;;;10.05;9.15;;;21.80;74.30;;;;;;5095327;28;20036;-74
2021/07/13 09:23:06;;;;;;;10.88;9.88;;;21.80;74.30;;;;;;5095750;28;20060;-74
2021/07/13 09:25:42;;;;;;;10.85;9.75;;;21.70;74.20;;;;;;5096053;28;20120;-74
2021/07/13 09:28:22;;;;;;;9.88;8.93;;;21.80;74.30;;;;;;5095694;28;20039;-74
2021/07/13 09:30:53;;;;;;;10.38;9.32;;;21.80;74.20;;;;;;5095743;28;20443;-75
2021/07/13 09:33:20;;;;;;;10.30;9.30;;;21.80;74.20;;;;;;5095694;28;20048;-75
2021/07/13 09:36:11;;;;;;;10.43;9.43;;;21.80;74.20;;;;;;5095396;28;20333;-75
2021/07/13 09:38:40;;;;;;;10.15;9.15;;;21.80;74.20;;;;;;5083014;28;20116;-74
2021/07/13 09:41:31;;;;;;;10.38;9.38;;;21.70;74.20;;;;;;5095353;28;20115;-74
2021/07/13 09:44:05;;;;;;;10.00;9.10;;;21.80;74.20;;;;;;5095368;28;20044;-75
2021/07/13 09:46:36;;;;;;;10.73;9.73;;;21.80;74.20;;;;;;5095614;28;20063;-75
2021/07/13 09:49:19;;;;;;;10.18;9.18;;;21.80;74.20;;;;;;5095336;28;20050;-75
2021/07/13 09:51:56;;;;;;;10.73;9.73;;;21.80;74.20;;;;;;5077475;28;20048;-75
2021/07/13 09:54:43;;;;;;;9.98;8.98;;;21.80;74.20;;;;;;5095107;28;20063;-74
2021/07/13 09:57:18;;;;;;;9.85;8.68;;;21.80;74.20;;;;;;5095657;28;20162;-74
2021/07/13 09:59:47;;;;;;;10.27;9.30;;;21.80;74.30;;;;;;5095478;28;20051;-75
2021/07/13 10:02:15;;;;;;;9.50;8.60;;;21.80;74.30;;;;;;5095378;28;20115;-74
2021/07/13 10:04:42;;;;;;;9.30;8.43;;;21.80;74.30;;;;;;5094835;28;20048;-74
2021/07/13 10:07:15;;;;;;;10.20;9.20;;;21.80;74.30;;;;;;5095167;28;20063;-74
2021/07/13 10:09:45;;;;;;;10.20;9.20;;;21.70;74.30;;;;;;5095026;28;20050;-74
2021/07/13 10:12:14;;;;;;;10.25;9.25;;;21.80;74.40;;;;;;5077189;28;20455;-74
2021/07/13 10:14:42;;;;;;;10.10;9.15;;;21.80;74.40;;;;;;5095214;28;20040;-74
2021/07/13 10:17:09;;;;;;;10.70;9.70;;;21.80;74.40;;;;;;5099625;28;20427;-74
2021/07/13 10:19:44;;;;;;;10.82;9.73;;;21.80;74.40;;;;;;5099089;28;20214;-74
2021/07/13 10:22:12;;;;;;;9.80;8.85;;;21.80;74.40;;;;;;5098919;28;20047;-75
2021/07/13 10:24:38;;;;;;;9.90;9.00;;;21.80;74.40;;;;;;5081599;28;20048;-74
2021/07/13 10:27:12;;;;;;;9.85;8.95;;;21.80;74.40;;;;;;5099332;28;20139;-74
2021/07/13 10:29:38;;;;;;;10.43;9.43;;;21.80;74.40;;;;;;5098801;28;20048;-75
2021/07/13 10:32:07;;;;;;;10.48;9.48;;;21.70;74.40;;;;;;5098848;28;20068;-74
2021/07/13 10:34:49;;;;;;;10.27;9.27;;;21.80;74.40;;;;;;5098769;28;20447;-74
2021/07/13 10:37:33;;;;;;;9.75;8.75;;;21.80;74.40;;;;;;5098970;28;20048;-74
2021/07/13 10:40:09;;;;;;;9.65;8.75;;;21.80;74.40;;;;;;5098884;28;20094;-74
2021/07/13 10:42:41;;;;;;;9.88;8.88;;;21.80;74.50;;;;;;5098554;28;20077;-74
2021/07/13 10:45:23;;;;;;;10.55;9.52;;;21.80;74.50;;;;;;5098718;28;20048;-75
2021/07/13 10:48:01;;;;;;;9.63;8.63;;;21.80;74.50;;;;;;5098307;28;20040;-74
2021/07/13 10:50:32;;;;;;;9.90;8.90;;;21.80;75.00;;;;;;5098392;28;20347;-74
2021/07/13 10:53:02;;;;;;;9.82;8.85;;;21.80;74.50;;;;;;5098580;28;20131;-74
2021/07/13 10:55:31;;;;;;;10.10;9.20;;;21.80;74.50;;;;;;5098467;28;20051;-75
2021/07/13 10:58:12;;;;;;;10.63;9.52;;;21.80;74.50;;;;;;5098317;28;20044;-75
2021/07/13 11:01:04;;;;;;;10.10;9.20;;;21.80;74.50;;;;;;5098748;28;20109;-74
2021/07/13 11:03:33;;;;;;;9.88;8.93;;;21.80;74.40;;;;;;5053946;28;20101;-74
2021/07/13 11:06:00;;;;;;;10.82;9.68;;;21.80;74.60;;;;;;5098900;28;20523;-75
2021/07/13 11:08:41;;;;;;;9.20;8.30;;;21.80;74.50;;;;;;5098158;28;20458;-74
2021/07/13 11:11:22;;;;;;;10.23;9.23;;;21.80;74.50;;;;;;5098495;28;20105;-75
2021/07/13 11:13:53;;;;;;;9.43;8.57;;;21.80;74.50;;;;;;5097719;28;20409;-74
2021/07/13 11:16:23;;;;;;;10.45;9.40;;;21.80;74.60;;;;;;5098139;28;20094;-74
2021/07/13 11:18:50;;;;;;;9.50;8.60;;;21.80;74.60;;;;;;5097733;28;20119;-75
2021/07/13 11:21:21;;;;;;;10.45;9.45;;;21.80;74.60;;;;;;5098221;28;20439;-75
2021/07/13 11:23:54;;;;;;;9.90;8.90;;;21.80;74.60;;;;;;5097847;28;20056;-74
2021/07/13 11:26:22;;;;;;;10.45;9.40;;;21.80;74.60;;;;;;5097371;28;20044;-74
2021/07/13 11:28:50;;;;;;;10.00;9.10;;;21.80;74.60;;;;;;5079935;28;20073;-75
2021/07/13 11:31:20;;;;;;;9.45;8.50;;;21.80;74.60;;;;;;5097462;28;20040;-75
2021/07/13 11:33:53;;;;;;;10.05;9.05;;;21.80;74.60;;;;;;5097803;28;20056;-74
2021/07/13 11:36:31;;;;;;;10.00;9.10;;;21.80;74.60;;;;;;5097354;28;20455;-75
2021/07/13 11:39:03;;;;;;;9.25;8.43;;;21.80;74.50;;;;;;5097809;28;20047;-74
2021/07/13 11:41:30;;;;;;;8.77;7.97;;;21.80;74.60;;;;;;5097758;28;20443;-74
2021/07/13 11:43:59;;;;;;;9.90;8.93;;;21.80;74.60;;;;;;5097559;28;20044;-74
2021/07/13 11:46:27;;;;;;;9.57;8.63;;;21.80;74.60;;;;;;5097760;28;20054;-74
2021/07/13 11:49:06;;;;;;;9.88;8.88;;;21.80;74.60;;;;;;5097342;28;20119;-74
2021/07/13 11:51:34;;;;;;;10.25;9.30;;;21.80;74.60;;;;;;5097288;28;20047;-74
2021/07/13 11:54:01;;;;;;;9.52;8.63;;;21.80;74.60;;;;;;5097979;28;20047;-74
2021/07/13 11:56:28;;;;;;;9.38;8.55;;;21.80;74.60;;;;;;5097759;28;20040;-74
2021/07/13 11:58:55;;;;;;;9.15;8.35;;;21.80;74.60;;;;;;5096841;28;20048;-74
2021/07/13 12:01:24;;;;;;;9.82;8.93;;;21.80;74.70;;;;;;5097200;28;20075;-74
2021/07/13 12:03:52;;;;;;;9.98;9.00;;;21.80;75.30;;;;;;5096842;28;20058;-74
2021/07/13 12:06:20;;;;;;;9.98;8.98;;;21.80;74.70;;;;;;5097301;28;20363;-74
2021/07/13 12:08:54;;;;;;;9.73;8.80;;;21.80;74.70;;;;;;5097032;28;20371;-75
2021/07/13 12:11:28;;;;;;;9.25;8.35;;;21.80;74.70;;;;;;5096803;28;20043;-74
2021/07/13 12:13:59;;;;;;;9.50;8.60;;;21.80;74.70;;;;;;5097145;28;20455;-74
2021/07/13 12:16:31;;;;;;;10.13;9.18;;;21.80;74.70;;;;;;5096727;28;20101;-74
2021/07/13 12:19:09;;;;;;;9.75;8.85;;;21.80;74.70;;;;;;5096827;28;20051;-74
2021/07/13 12:21:42;;;;;;;10.05;9.07;;;21.80;74.70;;;;;;5096867;28;20048;-74
2021/07/13 12:24:13;;;;;;;9.40;8.50;;;21.80;74.70;;;;;;5096286;28;20473;-74
2021/07/13 12:26:40;;;;;;;9.50;8.68;;;21.80;74.70;;;;;;5096434;28;20044;-74
2021/07/13 12:29:10;;;;;;;9.13;8.32;;;21.80;74.70;;;;;;5096351;28;20047;-74
2021/07/13 12:31:51;;;;;;;9.07;8.27;;;21.80;74.70;;;;;;5096658;28;20044;-74
2021/07/13 12:34:24;;;;;;;9.35;8.45;;;21.80;74.70;;;;;;5096058;28;20048;-74
2021/07/13 12:37:02;;;;;;;9.48;8.68;;;21.80;74.70;;;;;;5096355;28;20144;-72
2021/07/13 12:39:28;;;;;;;9.25;8.45;;;21.80;74.70;;;;;;5095630;28;20148;-72
2021/07/13 12:42:03;;;;;;;9.00;8.10;;;21.80;74.70;;;;;;5096559;28;20151;-72
2021/07/13 12:44:38;;;;;;;9.55;8.63;;;21.80;74.60;;;;;;5096235;28;20040;-72